Overview Statistics Trail Chart Weather Telemetry Raw packets
 

This is the latest recevied weather packets stored in our database for station/object HI3LT-13. If no packets are shown the sender has not sent any weather packets the latest 10 day(s).

<< 48 49 50 51 52 53 54 >>
Time Temp. Humidity Pressure Rain* Wind** Luminosity Snow
1787879441 26.11° C 78% 1015 hPa 0 mm - - -
1787878841 27.22° C 78% 1015 hPa 0 mm - - -
1787878240 27.22° C 78% 1015 hPa 0 mm - - -
1787877639 27.22° C 78% 1015 hPa 0 mm - - -
1787877039 27.22° C 78% 1015 hPa 0 mm - - -
1787876438 27.22° C 78% 1014 hPa 0 mm - - -
1787875838 27.78° C 74% 1015 hPa 0 mm - - -
1787875237 27.78° C 74% 1015 hPa 0 mm - - -
1787874637 27.78° C 74% 1015 hPa 0 mm - - -
1787874036 27.78° C 74% 1015 hPa 0 mm - - -
1787873435 27.78° C 74% 1015 hPa 0 mm - - -
1787872835 30° C 67% 1014 hPa 0 mm - - -
1787872236 30.56° C 62% 1014 hPa 0 mm - - -
1787871634 28.89° C 70% 1014 hPa 0 mm - - -
1787871033 28.89° C 70% 1014 hPa 0 mm - - -
1787870433 28.89° C 70% 1014 hPa 0 mm - - -
1787869832 31.11° C 61% 1014 hPa 0 mm - - -
1787869231 31.67° C 59% 1013 hPa 0 mm - - -
1787868630 32.78° C 52% 1013 hPa 0 mm - - -
1787868029 30° C 66% 1014 hPa 0 mm - - -
1787867428 30° C 66% 1014 hPa 0 mm - - -
1787866827 30° C 66% 1014 hPa 0 mm - - -
1787866226 33.33° C 54% 1014 hPa 0 mm - - -
1787865625 33.33° C 54% 1013 hPa 0 mm - - -
1787865025 34.44° C 45% 1013 hPa 0 mm - - -

* Rain latest hour (hover to see other rain measurements)
** Current wind speed in m/s (hover to see current wind gust speed)